createdAt,value
2018-07-01T00:00:25.940Z,0.00
2018-07-01T00:01:25.321Z,0.00
2018-07-01T00:02:25.227Z,0.00
2018-07-01T00:03:25.144Z,0.00
2018-07-01T00:04:25.101Z,0.00
2018-07-01T00:05:24.993Z,0.00
2018-07-01T00:06:24.922Z,0.00
2018-07-01T00:07:25.416Z,0.00
2018-07-01T00:08:24.771Z,0.00
2018-07-01T00:09:24.712Z,0.00
2018-07-01T00:10:24.621Z,0.00
2018-07-01T00:11:24.567Z,0.00
2018-07-01T00:12:24.475Z,0.00
2018-07-01T00:13:24.421Z,0.00
2018-07-01T00:14:24.329Z,0.00
2018-07-01T00:15:24.245Z,0.00
2018-07-01T00:16:24.172Z,0.00
2018-07-01T00:17:24.098Z,0.00
2018-07-01T00:18:24.049Z,0.00
2018-07-01T00:19:23.950Z,0.00
2018-07-01T00:20:23.872Z,0.00
2018-07-01T00:21:23.797Z,0.00
2018-07-01T00:22:23.723Z,0.00
2018-07-01T00:23:23.650Z,0.00
2018-07-01T00:24:23.573Z,0.00
2018-07-01T00:25:23.496Z,0.00
2018-07-01T00:26:23.425Z,0.00
2018-07-01T00:27:23.349Z,0.00
2018-07-01T00:28:23.280Z,0.00
2018-07-01T00:29:23.198Z,0.00
2018-07-01T00:30:23.123Z,0.00
2018-07-01T00:31:23.051Z,0.00
2018-07-01T00:32:22.976Z,0.00
2018-07-01T00:33:22.909Z,0.00
2018-07-01T00:34:22.824Z,0.00
2018-07-01T00:35:22.748Z,0.00
2018-07-01T00:36:22.674Z,0.00
2018-07-01T00:37:22.604Z,0.00
2018-07-01T00:38:22.527Z,0.00
2018-07-01T00:39:22.452Z,0.00
2018-07-01T00:40:22.374Z,0.00
2018-07-01T00:41:22.320Z,0.00
2018-07-01T00:42:22.228Z,0.00
2018-07-01T00:43:22.171Z,0.00
2018-07-01T00:44:22.074Z,0.00
2018-07-01T00:45:21.998Z,0.00
2018-07-01T00:46:21.923Z,0.00
2018-07-01T00:47:21.849Z,0.00
2018-07-01T00:48:21.779Z,0.00
2018-07-01T00:49:21.698Z,0.00
2018-07-01T00:50:21.623Z,0.00
2018-07-01T00:51:21.548Z,0.00
2018-07-01T00:52:21.474Z,0.00
2018-07-01T00:53:21.402Z,0.00
2018-07-01T00:54:21.322Z,0.00
2018-07-01T00:55:21.247Z,0.00
2018-07-01T00:56:21.180Z,0.00
2018-07-01T00:57:21.098Z,0.00
2018-07-01T00:58:21.026Z,0.00
2018-07-01T00:59:20.947Z,0.00
2018-07-01T01:00:20.872Z,0.00
2018-07-01T01:01:20.798Z,0.00
2018-07-01T01:02:20.722Z,0.00
2018-07-01T01:03:20.653Z,0.00
2018-07-01T01:04:20.571Z,0.00
2018-07-01T01:05:20.498Z,0.00
2018-07-01T01:06:20.423Z,0.00
2018-07-01T01:07:20.346Z,0.00
2018-07-01T01:08:20.284Z,0.00
2018-07-01T01:09:20.198Z,0.00
2018-07-01T01:10:20.126Z,0.00
2018-07-01T01:11:20.044Z,0.00
2018-07-01T01:12:19.974Z,0.00
2018-07-01T01:13:19.893Z,0.00
2018-07-01T01:14:19.819Z,0.00
2018-07-01T01:15:19.746Z,0.00
2018-07-01T01:16:19.681Z,0.00
2018-07-01T01:17:19.599Z,0.00
2018-07-01T01:18:19.517Z,0.00
2018-07-01T01:19:19.444Z,0.00
2018-07-01T01:20:19.364Z,0.00
2018-07-01T01:21:19.299Z,0.00
2018-07-01T01:22:19.218Z,0.00
2018-07-01T01:23:19.142Z,0.00
2018-07-01T01:24:19.063Z,0.00
2018-07-01T01:25:18.990Z,0.00
2018-07-01T01:26:18.935Z,0.00
2018-07-01T01:27:18.838Z,0.00
2018-07-01T01:28:18.765Z,0.00
2018-07-01T01:29:18.686Z,0.00
2018-07-01T01:30:18.613Z,0.00
2018-07-01T01:31:18.536Z,0.00
2018-07-01T01:32:18.460Z,0.00
2018-07-01T01:33:18.390Z,0.00
2018-07-01T01:34:18.309Z,0.00
2018-07-01T01:35:18.235Z,0.00
2018-07-01T01:36:18.177Z,0.00
2018-07-01T01:37:18.091Z,0.00
2018-07-01T01:38:18.010Z,0.00
2018-07-01T01:39:17.934Z,0.00
2018-07-01T01:40:17.861Z,0.00
2018-07-01T01:41:17.781Z,0.00
2018-07-01T01:42:17.710Z,0.00
2018-07-01T01:43:17.637Z,0.00
2018-07-01T01:44:17.553Z,0.00
2018-07-01T01:45:17.495Z,0.00
2018-07-01T01:46:17.409Z,0.00
2018-07-01T01:47:17.331Z,0.00
2018-07-01T01:48:17.257Z,0.00
2018-07-01T01:49:17.179Z,0.00
2018-07-01T01:50:17.152Z,0.00
2018-07-01T01:51:17.027Z,0.00
2018-07-01T01:52:16.952Z,0.00
2018-07-01T01:53:16.878Z,0.00
2018-07-01T01:54:16.799Z,0.00
2018-07-01T01:55:16.723Z,0.00
2018-07-01T01:56:16.672Z,0.00
2018-07-01T01:57:16.573Z,0.00
2018-07-01T01:58:16.500Z,0.00
2018-07-01T01:59:16.422Z,0.00
2018-07-01T02:00:16.349Z,0.00
2018-07-01T02:01:16.271Z,0.00
2018-07-01T02:02:16.194Z,0.00
2018-07-01T02:03:16.121Z,0.00
2018-07-01T02:04:16.049Z,0.00
2018-07-01T02:05:15.970Z,0.00
2018-07-01T02:06:15.893Z,0.00
2018-07-01T02:07:15.823Z,0.00
2018-07-01T02:08:15.743Z,0.00
2018-07-01T02:09:15.670Z,0.00
2018-07-01T02:10:16.453Z,0.00
2018-07-01T02:11:15.514Z,0.00
2018-07-01T02:12:15.456Z,0.00
2018-07-01T02:13:15.366Z,0.00
2018-07-01T02:14:15.288Z,0.00
2018-07-01T02:15:15.211Z,0.00
2018-07-01T02:16:15.137Z,0.00
2018-07-01T02:17:15.068Z,0.00
2018-07-01T02:18:14.989Z,0.00
2018-07-01T02:19:14.908Z,0.00
2018-07-01T02:20:14.829Z,0.00
2018-07-01T02:21:14.755Z,0.00
2018-07-01T02:22:14.695Z,0.00
2018-07-01T02:23:14.607Z,0.00
2018-07-01T02:24:14.530Z,0.00
2018-07-01T02:25:14.453Z,0.00
2018-07-01T02:26:14.396Z,0.00
2018-07-01T02:27:14.302Z,0.00
2018-07-01T02:28:14.233Z,0.00
2018-07-01T02:29:14.148Z,0.00
2018-07-01T02:30:14.077Z,0.00
2018-07-01T02:31:14.004Z,0.00
2018-07-01T02:32:13.921Z,0.00
2018-07-01T02:33:13.852Z,0.00
2018-07-01T02:34:13.769Z,0.00
2018-07-01T02:35:13.720Z,4.00
2018-07-01T02:36:13.620Z,4.00
2018-07-01T02:37:13.544Z,0.00
2018-07-01T02:38:13.470Z,0.00
2018-07-01T02:39:13.391Z,4.00
2018-07-01T02:40:13.315Z,4.00
2018-07-01T02:41:13.239Z,4.00
2018-07-01T02:42:13.189Z,4.00
2018-07-01T02:43:13.089Z,4.00
2018-07-01T02:44:13.010Z,4.00
2018-07-01T02:45:12.943Z,4.00
2018-07-01T02:46:12.864Z,8.00
2018-07-01T02:47:12.785Z,8.00
2018-07-01T02:48:12.709Z,8.00
2018-07-01T02:49:12.630Z,8.00
2018-07-01T02:50:12.553Z,8.00
2018-07-01T02:51:12.479Z,12.00
2018-07-01T02:52:12.400Z,16.00
2018-07-01T02:53:12.326Z,12.00
2018-07-01T02:54:12.256Z,20.00
2018-07-01T02:55:12.175Z,20.00
2018-07-01T02:56:12.099Z,24.00
2018-07-01T02:57:12.023Z,24.00
2018-07-01T02:58:11.951Z,28.00
2018-07-01T02:59:11.874Z,36.00
2018-07-01T03:00:11.798Z,36.00
2018-07-01T03:01:11.719Z,40.00
2018-07-01T03:02:11.642Z,48.00
2018-07-01T03:03:11.571Z,52.00
2018-07-01T03:04:11.516Z,60.00
2018-07-01T03:05:11.414Z,64.00
2018-07-01T03:06:11.336Z,72.00
2018-07-01T03:07:11.261Z,80.00
2018-07-01T03:08:11.185Z,88.00
2018-07-01T03:09:11.123Z,96.00
2018-07-01T03:10:11.040Z,104.00
2018-07-01T03:11:10.957Z,112.00
2018-07-01T03:12:10.885Z,124.00
2018-07-01T03:13:10.807Z,132.00
2018-07-01T03:14:10.727Z,144.00
2018-07-01T03:15:10.650Z,160.00
2018-07-01T03:16:10.576Z,172.00
2018-07-01T03:17:10.505Z,184.00
2018-07-01T03:18:10.425Z,196.00
2018-07-01T03:19:10.369Z,208.00
2018-07-01T03:20:10.281Z,220.00
2018-07-01T03:21:10.194Z,236.00
2018-07-01T03:22:10.117Z,252.00
2018-07-01T03:23:10.041Z,264.00
2018-07-01T03:24:09.973Z,280.00
2018-07-01T03:25:09.890Z,296.00
2018-07-01T03:26:09.817Z,308.00
2018-07-01T03:27:09.735Z,324.00
2018-07-01T03:28:09.660Z,340.00
2018-07-01T03:29:09.587Z,352.00
2018-07-01T03:30:09.575Z,372.00
2018-07-01T03:31:09.431Z,384.00
2018-07-01T03:32:09.358Z,404.00
2018-07-01T03:33:09.279Z,416.00
2018-07-01T03:34:09.201Z,432.00
2018-07-01T03:35:09.130Z,448.00
2018-07-01T03:36:09.062Z,460.00
2018-07-01T03:37:09.477Z,476.00
2018-07-01T03:38:08.895Z,496.00
2018-07-01T03:39:08.819Z,508.00
2018-07-01T03:40:08.747Z,528.00
2018-07-01T03:41:08.667Z,548.00
2018-07-01T03:42:08.596Z,572.00
2018-07-01T03:43:08.514Z,588.00
2018-07-01T03:44:08.445Z,612.00
2018-07-01T03:45:08.361Z,636.00
2018-07-01T03:46:08.300Z,660.00
2018-07-01T03:47:08.208Z,688.00
2018-07-01T03:48:08.133Z,712.00
2018-07-01T03:49:08.060Z,740.00
2018-07-01T03:50:08.051Z,760.00
2018-07-01T03:51:07.923Z,788.00
2018-07-01T03:52:07.834Z,812.00
2018-07-01T03:53:07.753Z,836.00
2018-07-01T03:54:07.677Z,860.00
2018-07-01T03:55:07.597Z,884.00
2018-07-01T03:56:07.522Z,912.00
2018-07-01T03:57:07.460Z,932.00
2018-07-01T03:58:07.367Z,956.00
2018-07-01T03:59:07.292Z,976.00
2018-07-01T04:00:07.215Z,1000.00
2018-07-01T04:01:07.140Z,1024.00
2018-07-01T04:02:07.085Z,1048.00
2018-07-01T04:03:06.989Z,1068.00
2018-07-01T04:04:06.909Z,1092.00
2018-07-01T04:05:06.833Z,1116.00
2018-07-01T04:06:06.757Z,1144.00
2018-07-01T04:07:06.681Z,1164.00
2018-07-01T04:08:06.604Z,1188.00
2018-07-01T04:09:06.538Z,1208.00
2018-07-01T04:10:06.455Z,1236.00
2018-07-01T04:11:06.373Z,1256.00
2018-07-01T04:12:06.302Z,1280.00
2018-07-01T04:13:06.240Z,1304.00
2018-07-01T04:14:06.157Z,1324.00
2018-07-01T04:15:06.068Z,1348.00
2018-07-01T04:16:05.992Z,1368.00
2018-07-01T04:17:05.916Z,1388.00
2018-07-01T04:18:05.848Z,1412.00
2018-07-01T04:19:05.767Z,1432.00
2018-07-01T04:20:05.686Z,1452.00
2018-07-01T04:21:05.612Z,1476.00
2018-07-01T04:22:05.535Z,1500.00
2018-07-01T04:23:05.481Z,1532.00
2018-07-01T04:24:05.386Z,1568.00
2018-07-01T04:25:05.307Z,1604.00
2018-07-01T04:26:05.250Z,1640.00
2018-07-01T04:27:05.154Z,1672.00
2018-07-01T04:28:05.079Z,1696.00
2018-07-01T04:29:05.005Z,1728.00
2018-07-01T04:30:04.925Z,1764.00
2018-07-01T04:31:04.918Z,1796.00
2018-07-01T04:32:04.773Z,1812.00
2018-07-01T04:33:04.929Z,1832.00
2018-07-01T04:34:04.621Z,1892.00
2018-07-01T04:35:04.544Z,1988.00
2018-07-01T04:36:04.469Z,2092.00
2018-07-01T04:37:04.391Z,2204.00
2018-07-01T04:38:04.314Z,2284.00
2018-07-01T04:39:04.242Z,2272.00
2018-07-01T04:40:04.162Z,2184.00
2018-07-01T04:41:04.088Z,2092.00
2018-07-01T04:42:04.014Z,2020.00
2018-07-01T04:43:03.933Z,1992.00
2018-07-01T04:44:03.862Z,1968.00
2018-07-01T04:45:03.785Z,1964.00
2018-07-01T04:46:03.705Z,1964.00
2018-07-01T04:47:03.631Z,1968.00
2018-07-01T04:48:03.557Z,1976.00
2018-07-01T04:49:03.481Z,1992.00
2018-07-01T04:50:03.403Z,2004.00
2018-07-01T04:51:03.325Z,2020.00
2018-07-01T04:52:03.256Z,2032.00
2018-07-01T04:53:03.174Z,2044.00
2018-07-01T04:54:03.106Z,2060.00
2018-07-01T04:55:03.089Z,2072.00
2018-07-01T04:56:02.947Z,2084.00
2018-07-01T04:57:02.874Z,2100.00
2018-07-01T04:58:02.801Z,2112.00
2018-07-01T04:59:02.718Z,2124.00
2018-07-01T05:00:02.649Z,2140.00
2018-07-01T05:01:02.573Z,2156.00
2018-07-01T05:02:02.509Z,2164.00
2018-07-01T05:03:02.418Z,2180.00
2018-07-01T05:04:02.343Z,2192.00
2018-07-01T05:05:02.277Z,2204.00
2018-07-01T05:06:02.188Z,2216.00
2018-07-01T05:07:02.112Z,2228.00
2018-07-01T05:08:02.037Z,2244.00
2018-07-01T05:09:01.967Z,2256.00
2018-07-01T05:10:01.932Z,2268.00
2018-07-01T05:11:01.817Z,2280.00
2018-07-01T05:12:01.761Z,2292.00
2018-07-01T05:13:01.662Z,2308.00
2018-07-01T05:14:01.587Z,2316.00
2018-07-01T05:15:01.509Z,2332.00
2018-07-01T05:16:01.444Z,2344.00
2018-07-01T05:17:01.409Z,2352.00
2018-07-01T05:18:01.289Z,2364.00
2018-07-01T05:19:02.008Z,2380.00
2018-07-01T05:20:01.131Z,2388.00
2018-07-01T05:21:01.057Z,2400.00
2018-07-01T05:22:00.979Z,2408.00
2018-07-01T05:23:00.905Z,2420.00
2018-07-01T05:24:00.829Z,2428.00
2018-07-01T05:25:00.768Z,2436.00
2018-07-01T05:26:00.698Z,2448.00
2018-07-01T05:27:00.601Z,2456.00
2018-07-01T05:28:00.524Z,2464.00
2018-07-01T05:29:00.453Z,2472.00
2018-07-01T05:30:00.376Z,2484.00
2018-07-01T05:31:00.297Z,2488.00
2018-07-01T05:32:00.222Z,2496.00
2018-07-01T05:33:00.149Z,2504.00
2018-07-01T05:34:00.072Z,2512.00
2018-07-01T05:35:00.002Z,2516.00
2018-07-01T05:35:59.923Z,2524.00
2018-07-01T05:36:59.846Z,2532.00
2018-07-01T05:37:59.780Z,2536.00
2018-07-01T05:38:59.695Z,2540.00
2018-07-01T05:39:59.618Z,2548.00
2018-07-01T05:40:59.552Z,2556.00
2018-07-01T05:41:59.470Z,2560.00
2018-07-01T05:42:59.394Z,2572.00
2018-07-01T05:43:59.324Z,2576.00
2018-07-01T05:44:59.245Z,2580.00
2018-07-01T05:45:59.171Z,2584.00
2018-07-01T05:46:59.097Z,2588.00
2018-07-01T05:47:59.014Z,2588.00
2018-07-01T05:48:58.939Z,2596.00
2018-07-01T05:49:58.869Z,2604.00
2018-07-01T05:50:58.800Z,2608.00
2018-07-01T05:51:58.714Z,2608.00
2018-07-01T05:52:58.637Z,2612.00
2018-07-01T05:53:58.565Z,2616.00
2018-07-01T05:54:58.493Z,2620.00
2018-07-01T05:55:58.413Z,2620.00
2018-07-01T05:56:58.339Z,2616.00
2018-07-01T05:57:58.282Z,2620.00
2018-07-01T05:58:58.187Z,2496.00
2018-07-01T05:59:58.114Z,2620.00
2018-07-01T06:00:58.047Z,2616.00
2018-07-01T06:01:57.964Z,2620.00
2018-07-01T06:02:57.885Z,2620.00
2018-07-01T06:03:57.813Z,2348.00
2018-07-01T06:04:57.737Z,2624.00
2018-07-01T06:05:57.661Z,2568.00
2018-07-01T06:06:57.589Z,2624.00
2018-07-01T06:07:57.512Z,2628.00
2018-07-01T06:08:57.437Z,2628.00
2018-07-01T06:09:57.361Z,2632.00
2018-07-01T06:10:57.294Z,2628.00
2018-07-01T06:11:57.216Z,2632.00
2018-07-01T06:12:57.141Z,2632.00
2018-07-01T06:13:57.076Z,2636.00
2018-07-01T06:14:56.998Z,2640.00
2018-07-01T06:15:56.916Z,2640.00
2018-07-01T06:16:56.841Z,2640.00
2018-07-01T06:17:56.763Z,2644.00
2018-07-01T06:18:56.689Z,2648.00
2018-07-01T06:19:56.612Z,2644.00
2018-07-01T06:20:56.540Z,2648.00
2018-07-01T06:21:56.464Z,2648.00
2018-07-01T06:22:56.392Z,2648.00
2018-07-01T06:23:56.315Z,2648.00
2018-07-01T06:24:56.243Z,2652.00
2018-07-01T06:25:56.169Z,2648.00
2018-07-01T06:26:56.092Z,2648.00
2018-07-01T06:27:56.016Z,2652.00
2018-07-01T06:28:55.941Z,2648.00
2018-07-01T06:29:55.869Z,2656.00
2018-07-01T06:30:55.790Z,2656.00
2018-07-01T06:31:55.719Z,2652.00
2018-07-01T06:32:55.745Z,2652.00
2018-07-01T06:33:55.609Z,2652.00
2018-07-01T06:34:55.491Z,2652.00
2018-07-01T06:35:55.432Z,2652.00
2018-07-01T06:36:55.342Z,2656.00
2018-07-01T06:37:55.266Z,2652.00
2018-07-01T06:38:55.194Z,2652.00
2018-07-01T06:39:55.119Z,2652.00
2018-07-01T06:40:55.048Z,2652.00
2018-07-01T06:41:54.987Z,2652.00
2018-07-01T06:42:54.895Z,2656.00
2018-07-01T06:43:54.822Z,2652.00
2018-07-01T06:44:54.764Z,2652.00
2018-07-01T06:45:54.672Z,2656.00
2018-07-01T06:46:54.597Z,2656.00
2018-07-01T06:47:54.522Z,2656.00
2018-07-01T06:48:54.449Z,2660.00
2018-07-01T06:49:54.391Z,2664.00
2018-07-01T06:50:54.299Z,2664.00
2018-07-01T06:51:54.226Z,2664.00
2018-07-01T06:52:54.170Z,2664.00
2018-07-01T06:53:54.081Z,2664.00
2018-07-01T06:54:54.005Z,2668.00
2018-07-01T06:55:53.928Z,2668.00
2018-07-01T06:56:53.854Z,2668.00
2018-07-01T06:57:53.782Z,2668.00
2018-07-01T06:58:53.720Z,2668.00
2018-07-01T06:59:53.633Z,2668.00
2018-07-01T07:00:53.555Z,2668.00
2018-07-01T07:01:53.481Z,2668.00
2018-07-01T07:02:53.407Z,2672.00
2018-07-01T07:03:53.336Z,2676.00
2018-07-01T07:04:53.272Z,2676.00
2018-07-01T07:05:53.189Z,2672.00
2018-07-01T07:06:53.110Z,2676.00
2018-07-01T07:07:53.050Z,2676.00
2018-07-01T07:08:52.963Z,2680.00
2018-07-01T07:09:52.890Z,2680.00
2018-07-01T07:10:52.812Z,2680.00
2018-07-01T07:11:52.741Z,2680.00
2018-07-01T07:12:52.665Z,2684.00
2018-07-01T07:13:52.600Z,2684.00
2018-07-01T07:14:52.515Z,2684.00
2018-07-01T07:15:52.453Z,2680.00
2018-07-01T07:16:52.374Z,2684.00
2018-07-01T07:17:52.293Z,2684.00
2018-07-01T07:18:52.228Z,2684.00
2018-07-01T07:19:52.144Z,2688.00
2018-07-01T07:20:52.070Z,2688.00
2018-07-01T07:21:51.998Z,2684.00
2018-07-01T07:22:51.934Z,2688.00
2018-07-01T07:23:51.848Z,2688.00
2018-07-01T07:24:51.775Z,2692.00
2018-07-01T07:25:51.700Z,2688.00
2018-07-01T07:26:51.629Z,2692.00
2018-07-01T07:27:51.551Z,2692.00
2018-07-01T07:28:51.478Z,2692.00
2018-07-01T07:29:51.407Z,2688.00
2018-07-01T07:30:51.327Z,2688.00
2018-07-01T07:31:51.261Z,2684.00
2018-07-01T07:32:51.182Z,2684.00
2018-07-01T07:33:51.107Z,2680.00
2018-07-01T07:34:51.032Z,2680.00
2018-07-01T07:35:50.959Z,2676.00
2018-07-01T07:36:50.885Z,2676.00
2018-07-01T07:37:50.811Z,2676.00
2018-07-01T07:38:50.761Z,2676.00
2018-07-01T07:39:50.666Z,2672.00
2018-07-01T07:40:50.626Z,2672.00
2018-07-01T07:41:50.532Z,2668.00
2018-07-01T07:42:50.440Z,2664.00
2018-07-01T07:43:50.374Z,2664.00
2018-07-01T07:44:50.304Z,2660.00
2018-07-01T07:45:50.224Z,2660.00
2018-07-01T07:46:50.148Z,2660.00
2018-07-01T07:47:50.071Z,2656.00
2018-07-01T07:48:49.999Z,2656.00
2018-07-01T07:49:49.924Z,2648.00
2018-07-01T07:50:49.850Z,2648.00
2018-07-01T07:51:49.778Z,2644.00
2018-07-01T07:52:49.705Z,2644.00
2018-07-01T07:53:49.629Z,2640.00
2018-07-01T07:54:49.554Z,2636.00
2018-07-01T07:55:49.502Z,2632.00
2018-07-01T07:56:49.406Z,2628.00
2018-07-01T07:57:49.333Z,2624.00
2018-07-01T07:58:49.259Z,2616.00
2018-07-01T07:59:49.188Z,2616.00
2018-07-01T08:00:49.115Z,2612.00
2018-07-01T08:01:49.037Z,2608.00
2018-07-01T08:02:48.966Z,2608.00
2018-07-01T08:03:48.894Z,2600.00
2018-07-01T08:04:48.836Z,2596.00
2018-07-01T08:05:48.743Z,2596.00
2018-07-01T08:06:48.671Z,2588.00
2018-07-01T08:07:48.597Z,2584.00
2018-07-01T08:08:48.521Z,2584.00
2018-07-01T08:09:48.458Z,2580.00
2018-07-01T08:10:48.377Z,2576.00
2018-07-01T08:11:48.307Z,2572.00
2018-07-01T08:12:48.288Z,2568.00
2018-07-01T08:13:48.153Z,2568.00
2018-07-01T08:14:48.092Z,2564.00
2018-07-01T08:15:48.005Z,2560.00
2018-07-01T08:16:47.936Z,2556.00
2018-07-01T08:17:47.857Z,2556.00
2018-07-01T08:18:47.786Z,2548.00
2018-07-01T08:19:47.717Z,2544.00
2018-07-01T08:20:47.639Z,2544.00
2018-07-01T08:21:47.564Z,2540.00
2018-07-01T08:22:47.491Z,2536.00
2018-07-01T08:23:47.419Z,2532.00
2018-07-01T08:24:47.343Z,2528.00
2018-07-01T08:25:47.270Z,2528.00
2018-07-01T08:26:47.197Z,2524.00
2018-07-01T08:27:47.124Z,2524.00
2018-07-01T08:28:47.066Z,2520.00
2018-07-01T08:29:47.016Z,2516.00
2018-07-01T08:30:46.901Z,2512.00
2018-07-01T08:31:46.827Z,2508.00
2018-07-01T08:32:46.759Z,2508.00
2018-07-01T08:33:46.679Z,2504.00
2018-07-01T08:34:46.606Z,2500.00
2018-07-01T08:35:46.533Z,2500.00
2018-07-01T08:36:46.500Z,2500.00
2018-07-01T08:37:46.389Z,2492.00
2018-07-01T08:38:46.315Z,2488.00
2018-07-01T08:39:46.241Z,2488.00
2018-07-01T08:40:46.168Z,2484.00
2018-07-01T08:41:46.090Z,2480.00
2018-07-01T08:42:46.018Z,2476.00
2018-07-01T08:43:45.948Z,2404.00
2018-07-01T08:44:45.875Z,2420.00
2018-07-01T08:45:45.798Z,2448.00
2018-07-01T08:46:45.735Z,2444.00
2018-07-01T08:47:45.655Z,2440.00
2018-07-01T08:48:45.634Z,2436.00
2018-07-01T08:49:45.511Z,2436.00
2018-07-01T08:50:45.490Z,2432.00
2018-07-01T08:51:45.423Z,2424.00
2018-07-01T08:52:45.364Z,2420.00
2018-07-01T08:53:45.247Z,2416.00
2018-07-01T08:54:45.204Z,2416.00
2018-07-01T08:55:45.101Z,2412.00
2018-07-01T08:56:44.995Z,2412.00
2018-07-01T08:57:44.921Z,2408.00
2018-07-01T08:58:44.846Z,2408.00
2018-07-01T08:59:44.774Z,2404.00
2018-07-01T09:00:44.703Z,2404.00
2018-07-01T09:01:44.624Z,2396.00
2018-07-01T09:02:44.556Z,2396.00
2018-07-01T09:03:44.483Z,2396.00
2018-07-01T09:04:44.406Z,2392.00
2018-07-01T09:05:44.340Z,2384.00
2018-07-01T09:06:44.258Z,2384.00
2018-07-01T09:07:44.187Z,2380.00
2018-07-01T09:08:44.134Z,2380.00
2018-07-01T09:09:44.064Z,2372.00
2018-07-01T09:10:43.967Z,2372.00
2018-07-01T09:11:43.894Z,2368.00
2018-07-01T09:12:43.828Z,2364.00
2018-07-01T09:13:43.750Z,2364.00
2018-07-01T09:14:43.678Z,2364.00
2018-07-01T09:15:43.604Z,2072.00
2018-07-01T09:16:43.529Z,2344.00
2018-07-01T09:17:43.455Z,2352.00
2018-07-01T09:18:43.409Z,2348.00
2018-07-01T09:19:43.341Z,2348.00
2018-07-01T09:20:43.234Z,2348.00
2018-07-01T09:21:43.168Z,2352.00
2018-07-01T09:22:43.091Z,2344.00
2018-07-01T09:23:43.108Z,2344.00
2018-07-01T09:24:42.943Z,2340.00
2018-07-01T09:25:42.869Z,2344.00
2018-07-01T09:26:42.795Z,2340.00
2018-07-01T09:27:42.794Z,2340.00
2018-07-01T09:28:42.653Z,2340.00
2018-07-01T09:29:42.576Z,2332.00
2018-07-01T09:30:42.503Z,2332.00
2018-07-01T09:31:42.434Z,2332.00
2018-07-01T09:32:42.360Z,2328.00
2018-07-01T09:33:42.285Z,2328.00
2018-07-01T09:34:42.233Z,2320.00
2018-07-01T09:35:42.139Z,2316.00
2018-07-01T09:36:42.068Z,2308.00
2018-07-01T09:37:42.016Z,2312.00
2018-07-01T09:38:41.933Z,2308.00
2018-07-01T09:39:41.849Z,2304.00
2018-07-01T09:40:42.588Z,2304.00
2018-07-01T09:41:41.706Z,2304.00
2018-07-01T09:42:41.629Z,2300.00
2018-07-01T09:43:41.561Z,2296.00
2018-07-01T09:44:41.480Z,2296.00
2018-07-01T09:45:41.421Z,2292.00
2018-07-01T09:46:41.409Z,2288.00
2018-07-01T09:47:41.271Z,2288.00
2018-07-01T09:48:41.197Z,2284.00
2018-07-01T09:49:42.089Z,2280.00
2018-07-01T09:50:41.108Z,2276.00
2018-07-01T09:51:40.971Z,2280.00
2018-07-01T09:52:40.899Z,2276.00
2018-07-01T09:53:40.824Z,2276.00
2018-07-01T09:54:40.755Z,2276.00
2018-07-01T09:55:40.704Z,2280.00
2018-07-01T09:56:40.609Z,2284.00
2018-07-01T09:57:40.541Z,2288.00
2018-07-01T09:58:40.463Z,2296.00
2018-07-01T09:59:40.390Z,2300.00
2018-07-01T10:00:40.318Z,2312.00
2018-07-01T10:01:40.244Z,2316.00
2018-07-01T10:02:40.171Z,2324.00
2018-07-01T10:03:40.102Z,2332.00
2018-07-01T10:04:40.028Z,2336.00
2018-07-01T10:05:39.955Z,2336.00
2018-07-01T10:06:39.879Z,2340.00
2018-07-01T10:07:39.810Z,2348.00
2018-07-01T10:08:39.735Z,2352.00
2018-07-01T10:09:39.835Z,2368.00
2018-07-01T10:10:39.591Z,2376.00
2018-07-01T10:11:39.529Z,2384.00
2018-07-01T10:12:39.449Z,2388.00
2018-07-01T10:13:39.376Z,2392.00
2018-07-01T10:14:39.312Z,2396.00
2018-07-01T10:15:39.295Z,2404.00
2018-07-01T10:16:39.155Z,2420.00
2018-07-01T10:17:39.081Z,2428.00
2018-07-01T10:18:39.025Z,2440.00
2018-07-01T10:19:38.938Z,2444.00
2018-07-01T10:20:38.893Z,2460.00
2018-07-01T10:21:38.791Z,2476.00
2018-07-01T10:22:38.734Z,2488.00
2018-07-01T10:23:38.645Z,2504.00
2018-07-01T10:24:38.578Z,2524.00
2018-07-01T10:25:38.502Z,2540.00
2018-07-01T10:26:38.475Z,2556.00
2018-07-01T10:27:38.382Z,2576.00
2018-07-01T10:28:38.284Z,2588.00
2018-07-01T10:29:38.220Z,2596.00
2018-07-01T10:30:38.195Z,2608.00
2018-07-01T10:31:38.066Z,2628.00
2018-07-01T10:32:37.995Z,2652.00
2018-07-01T10:33:37.923Z,2668.00
2018-07-01T10:34:37.851Z,2692.00
2018-07-01T10:35:37.779Z,2708.00
2018-07-01T10:36:37.705Z,2732.00
2018-07-01T10:37:37.642Z,2756.00
2018-07-01T10:38:37.561Z,2784.00
2018-07-01T10:39:37.502Z,2808.00
2018-07-01T10:40:37.437Z,2828.00
2018-07-01T10:41:37.353Z,2844.00
2018-07-01T10:42:37.275Z,2880.00
2018-07-01T10:43:37.220Z,2936.00
2018-07-01T10:44:37.137Z,2992.00
2018-07-01T10:45:37.059Z,3068.00
2018-07-01T10:46:36.985Z,3160.00
2018-07-01T10:47:36.917Z,3228.00
2018-07-01T10:48:36.840Z,3264.00
2018-07-01T10:49:36.783Z,3304.00
2018-07-01T10:50:36.700Z,3340.00
2018-07-01T10:51:36.688Z,3372.00
2018-07-01T10:52:36.567Z,3408.00
2018-07-01T10:53:36.481Z,3436.00
2018-07-01T10:54:36.411Z,3448.00
2018-07-01T10:55:36.356Z,3460.00
2018-07-01T10:56:36.277Z,3476.00
2018-07-01T10:57:36.244Z,3484.00
2018-07-01T10:58:36.123Z,3500.00
2018-07-01T10:59:36.067Z,3512.00
2018-07-01T11:00:36.022Z,3524.00
2018-07-01T11:01:35.913Z,3544.00
2018-07-01T11:02:35.876Z,3552.00
2018-07-01T11:03:35.764Z,3576.00
2018-07-01T11:04:35.710Z,3592.00
2018-07-01T11:05:35.663Z,3604.00
2018-07-01T11:06:35.615Z,3624.00
2018-07-01T11:07:35.476Z,3644.00
2018-07-01T11:08:35.404Z,3648.00
2018-07-01T11:09:35.339Z,3660.00
2018-07-01T11:10:35.259Z,3676.00
2018-07-01T11:11:35.210Z,3684.00
2018-07-01T11:12:35.122Z,3696.00
2018-07-01T11:13:35.053Z,3716.00
2018-07-01T11:14:34.975Z,3724.00
2018-07-01T11:15:34.904Z,3728.00
2018-07-01T11:16:34.841Z,3744.00
2018-07-01T11:17:34.761Z,3768.00
2018-07-01T11:18:34.691Z,3784.00
2018-07-01T11:19:34.624Z,3792.00
2018-07-01T11:20:34.552Z,3804.00
2018-07-01T11:21:34.477Z,3820.00
2018-07-01T11:22:34.418Z,3844.00
2018-07-01T11:23:34.333Z,3860.00
2018-07-01T11:24:34.265Z,3876.00
2018-07-01T11:25:34.189Z,3892.00
2018-07-01T11:26:34.175Z,3900.00
2018-07-01T11:27:34.150Z,3904.00
2018-07-01T11:28:33.982Z,3912.00
2018-07-01T11:29:33.939Z,3920.00
2018-07-01T11:30:33.838Z,3924.00
2018-07-01T11:31:33.769Z,3924.00
2018-07-01T11:32:33.694Z,3944.00
2018-07-01T11:33:33.658Z,3956.00
2018-07-01T11:34:33.558Z,3976.00
2018-07-01T11:35:33.479Z,3988.00
2018-07-01T11:36:33.416Z,3952.00
2018-07-01T11:37:33.340Z,4016.00
2018-07-01T11:38:33.286Z,4028.00
2018-07-01T11:39:33.202Z,4036.00
2018-07-01T11:40:33.136Z,4048.00
2018-07-01T11:41:33.057Z,4068.00
2018-07-01T11:42:33.018Z,4088.00
2018-07-01T11:43:32.914Z,4104.00
2018-07-01T11:44:32.904Z,4128.00
2018-07-01T11:45:32.775Z,4140.00
2018-07-01T11:46:32.711Z,4152.00
2018-07-01T11:47:32.640Z,4168.00
2018-07-01T11:48:32.571Z,4172.00
2018-07-01T11:49:32.493Z,4184.00
2018-07-01T11:50:32.420Z,4184.00
2018-07-01T11:51:32.354Z,4208.00
2018-07-01T11:52:32.280Z,4224.00
2018-07-01T11:53:32.213Z,4240.00
2018-07-01T11:54:32.143Z,4252.00
2018-07-01T11:55:32.081Z,4256.00
2018-07-01T11:56:31.998Z,4268.00
2018-07-01T11:57:31.933Z,4284.00
2018-07-01T11:58:31.863Z,4300.00
2018-07-01T11:59:31.789Z,4312.00
2018-07-01T12:00:31.723Z,4320.00
2018-07-01T12:01:31.645Z,4332.00
2018-07-01T12:02:31.584Z,4340.00
2018-07-01T12:03:31.509Z,4352.00
2018-07-01T12:04:31.437Z,4352.00
2018-07-01T12:05:31.461Z,4364.00
2018-07-01T12:06:31.298Z,4368.00
2018-07-01T12:07:31.227Z,4384.00
2018-07-01T12:08:31.155Z,4392.00
2018-07-01T12:09:31.091Z,4400.00
2018-07-01T12:10:31.045Z,4404.00
2018-07-01T12:11:30.992Z,4416.00
2018-07-01T12:12:30.926Z,4424.00
2018-07-01T12:13:30.864Z,4424.00
2018-07-01T12:14:30.764Z,4424.00
2018-07-01T12:15:30.710Z,4420.00
2018-07-01T12:16:30.650Z,4416.00
2018-07-01T12:17:30.571Z,4428.00
2018-07-01T12:18:30.517Z,4440.00
2018-07-01T12:19:30.408Z,4456.00
2018-07-01T12:20:31.197Z,4452.00
2018-07-01T12:21:30.249Z,4452.00
2018-07-01T12:22:30.236Z,4464.00
2018-07-01T12:23:30.815Z,4476.00